• Join FlightAware (Why Join?)
  • Login
  • US Flag 
08:23AM EDT


 

Airport Tracker/Info


-or-


 

Live Flight TrackerFlight Track Log ✈ USC422 ✈ 08-May-2013 ✈ KBUR - KPHX

Flight Track Log - Related Links

Times and Time Zones

All times are in EDT time to prevent confusion due to time zone crossing. See the USC422 flight status page for this flight to view local times or setup timezone preferences in your user account.

Time Position Orientation Groundspeed Altitude Reporting Facility
EDT Latitude Longitude Course Direction KTS MPH feet Rate Location/Type
05:52PM 34.1833 -118.3333 140° Southeast 109 125 2,200  Level Southern California TRACON
05:53PM 34.1667 -118.3000 121° Southeast 115 132 3,600 1,380 Climbing Southern California TRACON
05:54PM 34.1653 -118.2972 121° Southeast 113 130 4,000 960 Climbing Los Angeles Center
05:55PM 34.1542 -118.2600 110° East 114 131 5,100 420 Climbing Los Angeles Center
05:56PM 34.1328 -118.1872 110° East 147 169 5,100 -60 Level Los Angeles Center
05:57PM 34.1000 -118.1167 119° Southeast 184 212 5,000 -60 Descending Southern California TRACON
05:58PM 34.0814 -118.0314 140° Southeast  Level FlightAware Approximate
05:58PM 34.0833 -118.0500 107° East 184 212 5,000  Level Southern California TRACON
05:59PM 34.0667 -118.0000 112° Southeast 185 213 5,000  Level Southern California TRACON
06:00PM 34.0500 -117.9333 107° East 184 212 5,000  Level Southern California TRACON
06:01PM 34.0333 -117.8833 112° Southeast 184 212 5,000 120 Level Southern California TRACON
06:02PM 34.0167 -117.8333 112° Southeast 182 209 5,300 780 Climbing Southern California TRACON
06:03PM 34.0000 -117.7833 112° Southeast 137 158 6,600 720 Climbing Southern California TRACON
06:04PM 33.9833 -117.7333 112° Southeast 151 174 6,900 180 Climbing Southern California TRACON
06:05PM 33.9667 -117.6833 112° Southeast 171 197 7,000  Climbing Southern California TRACON
06:06PM 33.9500 -117.6333 112° Southeast 177 204 7,000 300 Level Southern California TRACON
06:07PM 33.9333 -117.5833 112° Southeast 152 175 7,700 780 Climbing Southern California TRACON
06:08PM 33.9167 -117.5333 112° Southeast 128 147 8,600 840 Climbing Southern California TRACON
06:09PM 33.9167 -117.5000 90° East 118 136 9,500 720 Climbing Southern California TRACON
06:11PM 33.9000 -117.4667 121° Southeast 124 143 10,200 660 Climbing Southern California TRACON
06:12PM 33.9000 -117.4167 90° East 135 155 10,900 300 Climbing Southern California TRACON
06:13PM 33.8833 -117.3667 112° Southeast 165 190 10,900 60 Level Southern California TRACON
06:13PM 33.8669 -117.3431 130° Southeast 165 190 11,000 60 Climbing Los Angeles Center
06:14PM 33.8458 -117.2861 114° Southeast 184 212 11,000  Level Los Angeles Center
06:15PM 33.8119 -117.2425 133° Southeast 186 214 11,000 -60 Level Los Angeles Center
06:16PM 33.7675 -117.1933 137° Southeast 182 209 10,900 -60 Descending Los Angeles Center
06:17PM 33.7400 -117.1403 122° Southeast 187 215 10,900  Level Los Angeles Center
06:18PM 33.7089 -117.0897 126° Southeast 186 214 11,000  Climbing Los Angeles Center
06:19PM 33.7047 -117.0264 95° East 190 219 10,900  Descending Los Angeles Center
06:20PM 33.6997 -116.9644 96° East 188 216 11,000  Climbing Los Angeles Center
06:21PM 33.6958 -116.9019 94° East 188 216 11,000 -60 Level Los Angeles Center
06:22PM 33.6892 -116.8319 97° East 188 216 10,900 -60 Descending Los Angeles Center
06:23PM 33.6847 -116.7697 95° East 187 215 10,900  Level Los Angeles Center
06:25PM 33.6803 -116.7069 95° East 189 217 10,900  Level Los Angeles Center
06:26PM 33.6731 -116.6456 98° East 186 214 10,900  Level Los Angeles Center
06:27PM 33.6669 -116.5706 96° East 188 216 11,000  Climbing Los Angeles Center
06:28PM 33.6611 -116.5083 96° East 188 216 10,900 -60 Descending Los Angeles Center
06:29PM 33.6556 -116.4461 96° East 188 216 10,900  Level Los Angeles Center
06:30PM 33.6503 -116.3833 96° East 188 216 10,900  Level Los Angeles Center
06:31PM 33.6439 -116.3219 97° East 187 215 10,900  Level Los Angeles Center
06:32PM 33.6386 -116.2589 96° East 188 216 10,900  Level Los Angeles Center
06:33PM 33.6317 -116.1831 96° East 189 217 11,000  Climbing Los Angeles Center
06:34PM 33.6278 -116.1200 94° East 190 219 11,000  Level Los Angeles Center
06:35PM 33.6278 -116.0453 90° East 189 217 11,000  Level Los Angeles Center
06:36PM 33.6272 -115.9817 91° East 189 217 11,000 -60 Level Los Angeles Center
06:37PM 33.6253 -115.9183 92° East 190 219 10,900 -180 Descending Los Angeles Center
06:38PM 33.6244 -115.8550 91° East 191 220 10,700 -420 Descending Los Angeles Center
06:39PM 33.6228 -115.7728 91° East 202 232 10,100 -600 Descending Los Angeles Center
06:40PM 33.6219 -115.7036 91° East 206 237 9,500 -540 Descending Los Angeles Center
06:41PM 33.6197 -115.6356 92° East 206 237 9,000 -300 Descending Los Angeles Center
06:42PM 33.6183 -115.5839 92° East 203 234 8,900 -60 Descending Los Angeles Center
06:43PM 33.6167 -115.5131 92° East 187 215 8,900  Level Los Angeles Center
06:44PM 33.6156 -115.4564 91° East 176 203 8,900  Level Los Angeles Center
06:45PM 33.6150 -115.3869 91° East 174 200 8,900  Level Los Angeles Center
06:46PM 33.6128 -115.3264 93° East 179 206 8,900  Level Los Angeles Center
06:48PM 33.6114 -115.2644 92° East 183 211 8,900  Level Los Angeles Center
06:49PM 33.6106 -115.2028 91° East 185 213 8,900  Level Los Angeles Center
06:50PM 33.6081 -115.1394 93° East 188 216 9,000  Climbing Los Angeles Center
06:51PM 33.6050 -115.0775 93° East 187 215 8,900 -60 Descending Los Angeles Center
06:52PM 33.6039 -115.0028 91° East 187 215 8,900  Level Los Angeles Center
06:53PM 33.6025 -114.9414 92° East 186 214 8,900  Level Los Angeles Center
06:54PM 33.6011 -114.8872 92° East 181 208 8,900  Level Los Angeles Center
06:55PM 33.5992 -114.8192 92° East 186 214 8,900  Level Los Angeles Center
06:56PM 33.5972 -114.7594 92° East 182 209 9,000  Climbing Los Angeles Center
06:57PM 33.5928 -114.6978 95° East 185 213 9,000  Level Los Angeles Center
06:58PM 33.5883 -114.6128 94° East 183 211 9,000  Level Los Angeles Center
06:58PM 33.5867 -114.5914 95° East 186 214 9,000  Level Albuquerque Center
06:59PM 33.5828 -114.5292 94° East 187 215 9,000  Level Albuquerque Center
07:00PM 33.5808 -114.4689 92° East 182 209 9,000  Level Albuquerque Center
07:01PM 33.5753 -114.4081 96° East 183 211 9,000  Level Albuquerque Center
07:02PM 33.5717 -114.3472 94° East 183 211 9,000 -60 Level Albuquerque Center
07:04PM 33.5667 -114.2878 96° East 180 207 8,900 -60 Descending Albuquerque Center
07:05PM 33.5633 -114.2269 94° East 182 209 8,900  Level Albuquerque Center
07:06PM 33.5578 -114.1569 95° East 177 204 8,900  Level Albuquerque Center
07:07PM 33.5525 -114.0983 96° East 176 203 8,900  Level Albuquerque Center
07:08PM 33.5494 -114.0406 94° East 175 201 9,000  Climbing Albuquerque Center
07:09PM 33.5444 -113.9825 96° East 174 200 9,000 -60 Level Albuquerque Center
07:10PM 33.5386 -113.9236 97° East 175 201 8,900 -60 Descending Albuquerque Center
07:11PM 33.5350 -113.8622 94° East 179 206 8,900  Level Albuquerque Center
07:12PM 33.5297 -113.8011 96° East 182 209 8,900  Level Albuquerque Center
07:13PM 33.5250 -113.7269 94° East 184 212 8,900  Level Albuquerque Center
07:14PM 33.5214 -113.6658 94° East 184 212 9,000  Climbing Albuquerque Center
07:15PM 33.5167 -113.6056 95° East 184 212 9,000  Level Albuquerque Center
07:16PM 33.5136 -113.5450 93° East 183 211 9,000 -60 Level Albuquerque Center
07:17PM 33.5081 -113.4850 96° East 182 209 8,900  Descending Albuquerque Center
07:18PM 33.5011 -113.4233 98° East 184 212 9,000  Climbing Albuquerque Center
07:19PM 33.4981 -113.3578 93° East 190 219 9,000  Level Albuquerque Center
07:20PM 33.4922 -113.2961 96° East 188 216 9,000  Level Albuquerque Center
07:21PM 33.4875 -113.2239 94° East 183 211 9,000  Level Albuquerque Center
07:22PM 33.4819 -113.1614 96° East 187 215 9,000  Level Albuquerque Center
07:23PM 33.4764 -113.0992 96° East 188 216 9,000 -240 Level Albuquerque Center
07:24PM 33.4717 -113.0358 95° East 190 219 8,600 -540 Descending Albuquerque Center
07:25PM 33.4661 -112.9811 97° East 199 229 8,100 -600 Descending Albuquerque Center
07:26PM 33.4617 -112.9019 94° East 202 232 7,400 -540 Descending Albuquerque Center
07:27PM 33.4542 -112.8328 97° East 207 238 7,000 -180 Descending Albuquerque Center
07:28PM 33.4369 -112.7731 109° East 195 224 7,100 -60 Climbing Albuquerque Center
07:29PM 33.4100 -112.7072 116° Southeast 186 214 6,900 -60 Descending Albuquerque Center
07:30PM 33.3900 -112.6514 113° Southeast 185 213 7,000  Climbing Albuquerque Center
07:31PM 33.3686 -112.5953 115° Southeast 185 213 7,000  Level Albuquerque Center
07:32PM 33.3500 -112.5400 112° Southeast 186 214 7,000  Level Albuquerque Center
07:33PM 33.3267 -112.4864 118° Southeast 185 213 7,000  Level Albuquerque Center
07:34PM 33.3081 -112.4303 112° Southeast 183 211 7,000 -120 Level Albuquerque Center
07:35PM 33.2817 -112.3619 115° Southeast 188 216 6,800 -540 Descending Albuquerque Center
07:36PM 33.2589 -112.2989 113° Southeast 201 231 6,000 -420 Descending Albuquerque Center
07:37PM 33.2519 -112.2344 97° East 201 231 6,000  Level Albuquerque Center
07:38PM 33.2647 -112.1742 76° East 194 223 6,000 -60 Level Albuquerque Center
07:39PM 33.2819 -112.1156 71° East 189 217 5,900 -420 Descending Albuquerque Center
07:41PM 33.3025 -112.0600 66° East 186 214 5,200 -540 Descending Albuquerque Center
07:42PM 33.3233 -111.9864 71° East 192 221 4,900 -540 Descending Albuquerque Center
07:43PM 33.3725 -111.9828 North 190 219 4,100 -1,020 Descending Albuquerque Center
07:44PM 33.4131 -111.9828 360° North 166 191 2,800 -1,080 Descending Albuquerque Center
07:45PM 33.4400 -111.9853 356° North 141 162 2,000 -840 Descending Albuquerque Center
07:46PM 33.4336 -112.0139 255° West 133 153 1,200 -780 Descending Albuquerque Center